sensor_id;sensor_type;location;lat;lon;timestamp;P1;durP1;ratioP1;P2;durP2;ratioP2
37305;SDS011;23193;42.656;21.170;2024-01-15T00:00:32;104.95;;;47.92;;
37305;SDS011;23193;42.656;21.170;2024-01-15T00:02:59;135.10;;;62.97;;
37305;SDS011;23193;42.656;21.170;2024-01-15T00:05:26;138.05;;;65.85;;
37305;SDS011;23193;42.656;21.170;2024-01-15T00:07:53;139.25;;;69.07;;
37305;SDS011;23193;42.656;21.170;2024-01-15T00:10:20;139.55;;;66.93;;
37305;SDS011;23193;42.656;21.170;2024-01-15T00:12:47;156.68;;;68.95;;
37305;SDS011;23193;42.656;21.170;2024-01-15T00:15:14;166.43;;;75.72;;
37305;SDS011;23193;42.656;21.170;2024-01-15T00:17:41;167.23;;;81.38;;
37305;SDS011;23193;42.656;21.170;2024-01-15T00:20:09;149.45;;;70.53;;
37305;SDS011;23193;42.656;21.170;2024-01-15T00:22:36;146.52;;;68.90;;
37305;SDS011;23193;42.656;21.170;2024-01-15T00:25:03;142.38;;;69.97;;
37305;SDS011;23193;42.656;21.170;2024-01-15T00:27:30;146.18;;;71.38;;
37305;SDS011;23193;42.656;21.170;2024-01-15T00:29:57;139.75;;;67.07;;
37305;SDS011;23193;42.656;21.170;2024-01-15T00:32:24;140.52;;;67.03;;
37305;SDS011;23193;42.656;21.170;2024-01-15T00:34:51;137.20;;;67.15;;
37305;SDS011;23193;42.656;21.170;2024-01-15T00:37:18;142.40;;;67.07;;
37305;SDS011;23193;42.656;21.170;2024-01-15T00:39:46;150.43;;;69.28;;
37305;SDS011;23193;42.656;21.170;2024-01-15T00:42:13;136.38;;;65.72;;
37305;SDS011;23193;42.656;21.170;2024-01-15T00:44:40;161.63;;;76.43;;
37305;SDS011;23193;42.656;21.170;2024-01-15T00:47:07;170.23;;;78.68;;
37305;SDS011;23193;42.656;21.170;2024-01-15T00:49:34;223.40;;;98.28;;
37305;SDS011;23193;42.656;21.170;2024-01-15T00:52:01;364.25;;;155.05;;
37305;SDS011;23193;42.656;21.170;2024-01-15T00:54:28;360.52;;;151.65;;
37305;SDS011;23193;42.656;21.170;2024-01-15T00:56:55;433.05;;;193.77;;
37305;SDS011;23193;42.656;21.170;2024-01-15T00:59:23;154.40;;;68.45;;
37305;SDS011;23193;42.656;21.170;2024-01-15T01:01:50;343.80;;;141.20;;
37305;SDS011;23193;42.656;21.170;2024-01-15T01:04:17;263.58;;;110.95;;
37305;SDS011;23193;42.656;21.170;2024-01-15T01:06:44;160.65;;;72.22;;
37305;SDS011;23193;42.656;21.170;2024-01-15T01:09:11;169.05;;;73.90;;
37305;SDS011;23193;42.656;21.170;2024-01-15T01:11:38;320.50;;;136.35;;
37305;SDS011;23193;42.656;21.170;2024-01-15T01:14:05;373.45;;;159.13;;
37305;SDS011;23193;42.656;21.170;2024-01-15T01:16:33;438.88;;;185.93;;
37305;SDS011;23193;42.656;21.170;2024-01-15T01:19:06;223.32;;;98.72;;
37305;SDS011;23193;42.656;21.170;2024-01-15T01:21:34;132.48;;;62.63;;
37305;SDS011;23193;42.656;21.170;2024-01-15T01:24:01;287.92;;;124.15;;
37305;SDS011;23193;42.656;21.170;2024-01-15T01:26:29;620.90;;;304.23;;
37305;SDS011;23193;42.656;21.170;2024-01-15T01:28:56;332.75;;;144.68;;
37305;SDS011;23193;42.656;21.170;2024-01-15T01:31:23;266.05;;;114.30;;
37305;SDS011;23193;42.656;21.170;2024-01-15T01:33:51;225.82;;;95.90;;
37305;SDS011;23193;42.656;21.170;2024-01-15T01:36:18;195.60;;;86.72;;
37305;SDS011;23193;42.656;21.170;2024-01-15T01:38:45;216.90;;;97.15;;
37305;SDS011;23193;42.656;21.170;2024-01-15T01:41:12;181.98;;;91.82;;
37305;SDS011;23193;42.656;21.170;2024-01-15T01:43:39;148.77;;;77.45;;
37305;SDS011;23193;42.656;21.170;2024-01-15T01:46:06;158.25;;;72.90;;
37305;SDS011;23193;42.656;21.170;2024-01-15T01:48:35;139.40;;;68.00;;
37305;SDS011;23193;42.656;21.170;2024-01-15T01:51:02;143.32;;;69.45;;
37305;SDS011;23193;42.656;21.170;2024-01-15T01:53:31;125.22;;;61.22;;
37305;SDS011;23193;42.656;21.170;2024-01-15T01:55:59;117.57;;;56.88;;
37305;SDS011;23193;42.656;21.170;2024-01-15T01:58:26;117.00;;;55.45;;
37305;SDS011;23193;42.656;21.170;2024-01-15T02:00:54;113.72;;;56.25;;
37305;SDS011;23193;42.656;21.170;2024-01-15T02:03:21;118.95;;;58.83;;
37305;SDS011;23193;42.656;21.170;2024-01-15T02:05:49;117.97;;;55.58;;
37305;SDS011;23193;42.656;21.170;2024-01-15T02:08:16;112.70;;;56.15;;
37305;SDS011;23193;42.656;21.170;2024-01-15T02:10:43;120.30;;;58.97;;
37305;SDS011;23193;42.656;21.170;2024-01-15T02:13:11;120.15;;;57.97;;
37305;SDS011;23193;42.656;21.170;2024-01-15T02:15:38;118.05;;;57.20;;
37305;SDS011;23193;42.656;21.170;2024-01-15T02:18:05;118.18;;;56.10;;
37305;SDS011;23193;42.656;21.170;2024-01-15T02:20:34;119.60;;;56.50;;
37305;SDS011;23193;42.656;21.170;2024-01-15T02:23:11;128.55;;;57.28;;
37305;SDS011;23193;42.656;21.170;2024-01-15T02:25:45;124.55;;;58.90;;
37305;SDS011;23193;42.656;21.170;2024-01-15T02:28:13;118.15;;;56.40;;
37305;SDS011;23193;42.656;21.170;2024-01-15T02:30:41;105.65;;;50.20;;
37305;SDS011;23193;42.656;21.170;2024-01-15T02:33:09;115.93;;;54.40;;
37305;SDS011;23193;42.656;21.170;2024-01-15T02:35:37;104.10;;;48.40;;
37305;SDS011;23193;42.656;21.170;2024-01-15T02:38:07;104.47;;;51.78;;
37305;SDS011;23193;42.656;21.170;2024-01-15T02:40:34;118.28;;;54.25;;
37305;SDS011;23193;42.656;21.170;2024-01-15T02:43:02;122.22;;;57.20;;
37305;SDS011;23193;42.656;21.170;2024-01-15T02:45:29;148.25;;;63.35;;
37305;SDS011;23193;42.656;21.170;2024-01-15T02:47:56;141.98;;;64.28;;
37305;SDS011;23193;42.656;21.170;2024-01-15T02:50:23;144.73;;;64.10;;
37305;SDS011;23193;42.656;21.170;2024-01-15T02:52:50;140.68;;;64.15;;
37305;SDS011;23193;42.656;21.170;2024-01-15T02:55:17;145.90;;;62.45;;
37305;SDS011;23193;42.656;21.170;2024-01-15T02:57:45;147.63;;;64.45;;
37305;SDS011;23193;42.656;21.170;2024-01-15T03:00:12;149.20;;;63.90;;
37305;SDS011;23193;42.656;21.170;2024-01-15T03:02:40;146.25;;;67.30;;
37305;SDS011;23193;42.656;21.170;2024-01-15T03:05:11;150.68;;;68.53;;
37305;SDS011;23193;42.656;21.170;2024-01-15T03:07:38;162.35;;;72.88;;
37305;SDS011;23193;42.656;21.170;2024-01-15T03:10:06;184.05;;;85.15;;
37305;SDS011;23193;42.656;21.170;2024-01-15T03:12:33;180.07;;;82.03;;
37305;SDS011;23193;42.656;21.170;2024-01-15T03:15:00;177.25;;;83.25;;
37305;SDS011;23193;42.656;21.170;2024-01-15T03:17:27;236.65;;;116.43;;
37305;SDS011;23193;42.656;21.170;2024-01-15T03:19:54;209.30;;;104.72;;
37305;SDS011;23193;42.656;21.170;2024-01-15T03:22:21;224.00;;;105.13;;
37305;SDS011;23193;42.656;21.170;2024-01-15T03:24:49;213.75;;;98.93;;
37305;SDS011;23193;42.656;21.170;2024-01-15T03:27:16;234.55;;;110.03;;
37305;SDS011;23193;42.656;21.170;2024-01-15T03:29:43;302.63;;;141.65;;
37305;SDS011;23193;42.656;21.170;2024-01-15T03:32:10;222.88;;;103.35;;
37305;SDS011;23193;42.656;21.170;2024-01-15T03:34:37;369.67;;;180.43;;
37305;SDS011;23193;42.656;21.170;2024-01-15T03:37:05;406.58;;;204.57;;
37305;SDS011;23193;42.656;21.170;2024-01-15T03:39:32;307.60;;;150.68;;
37305;SDS011;23193;42.656;21.170;2024-01-15T03:42:00;381.40;;;184.50;;
37305;SDS011;23193;42.656;21.170;2024-01-15T03:44:27;521.33;;;255.43;;
37305;SDS011;23193;42.656;21.170;2024-01-15T03:46:53;563.67;;;274.00;;
37305;SDS011;23193;42.656;21.170;2024-01-15T03:49:21;223.50;;;98.95;;
37305;SDS011;23193;42.656;21.170;2024-01-15T03:51:48;732.10;;;371.95;;
37305;SDS011;23193;42.656;21.170;2024-01-15T03:54:15;311.63;;;138.82;;
37305;SDS011;23193;42.656;21.170;2024-01-15T03:56:46;220.40;;;102.32;;
37305;SDS011;23193;42.656;21.170;2024-01-15T03:59:13;530.92;;;267.35;;
37305;SDS011;23193;42.656;21.170;2024-01-15T04:01:40;413.45;;;201.48;;
37305;SDS011;23193;42.656;21.170;2024-01-15T04:04:07;178.90;;;87.72;;
37305;SDS011;23193;42.656;21.170;2024-01-15T04:06:35;120.28;;;57.95;;
37305;SDS011;23193;42.656;21.170;2024-01-15T04:09:02;268.27;;;132.80;;
37305;SDS011;23193;42.656;21.170;2024-01-15T04:11:29;263.13;;;125.25;;
37305;SDS011;23193;42.656;21.170;2024-01-15T04:13:56;218.65;;;103.35;;
37305;SDS011;23193;42.656;21.170;2024-01-15T04:16:23;205.20;;;97.43;;
37305;SDS011;23193;42.656;21.170;2024-01-15T04:18:50;211.07;;;103.55;;
37305;SDS011;23193;42.656;21.170;2024-01-15T04:21:18;89.25;;;45.38;;
37305;SDS011;23193;42.656;21.170;2024-01-15T04:23:45;84.95;;;40.60;;
37305;SDS011;23193;42.656;21.170;2024-01-15T04:26:12;129.82;;;60.58;;
37305;SDS011;23193;42.656;21.170;2024-01-15T04:28:39;127.88;;;61.50;;
37305;SDS011;23193;42.656;21.170;2024-01-15T04:31:07;103.80;;;51.20;;
37305;SDS011;23193;42.656;21.170;2024-01-15T04:33:34;96.90;;;47.28;;
37305;SDS011;23193;42.656;21.170;2024-01-15T04:36:02;109.95;;;54.45;;
37305;SDS011;23193;42.656;21.170;2024-01-15T04:38:30;113.10;;;52.28;;
37305;SDS011;23193;42.656;21.170;2024-01-15T04:40:57;100.68;;;49.17;;
37305;SDS011;23193;42.656;21.170;2024-01-15T04:43:24;100.45;;;47.83;;
37305;SDS011;23193;42.656;21.170;2024-01-15T04:45:51;104.70;;;49.38;;
37305;SDS011;23193;42.656;21.170;2024-01-15T04:48:18;103.78;;;49.67;;
37305;SDS011;23193;42.656;21.170;2024-01-15T04:50:45;99.38;;;48.80;;
37305;SDS011;23193;42.656;21.170;2024-01-15T04:53:13;97.28;;;49.75;;
37305;SDS011;23193;42.656;21.170;2024-01-15T04:55:40;91.05;;;47.65;;
37305;SDS011;23193;42.656;21.170;2024-01-15T04:58:07;103.43;;;49.55;;
37305;SDS011;23193;42.656;21.170;2024-01-15T05:00:34;93.97;;;47.50;;
37305;SDS011;23193;42.656;21.170;2024-01-15T05:03:01;110.40;;;49.38;;
37305;SDS011;23193;42.656;21.170;2024-01-15T05:05:28;92.57;;;46.25;;
37305;SDS011;23193;42.656;21.170;2024-01-15T05:07:55;93.80;;;44.40;;
37305;SDS011;23193;42.656;21.170;2024-01-15T05:10:22;84.00;;;41.83;;
37305;SDS011;23193;42.656;21.170;2024-01-15T05:12:49;101.22;;;46.20;;
37305;SDS011;23193;42.656;21.170;2024-01-15T05:15:16;84.28;;;42.40;;
37305;SDS011;23193;42.656;21.170;2024-01-15T05:17:44;79.60;;;41.22;;
37305;SDS011;23193;42.656;21.170;2024-01-15T05:20:11;77.32;;;39.55;;
37305;SDS011;23193;42.656;21.170;2024-01-15T05:22:38;83.25;;;42.63;;
37305;SDS011;23193;42.656;21.170;2024-01-15T05:25:05;87.35;;;41.05;;
37305;SDS011;23193;42.656;21.170;2024-01-15T05:27:32;80.97;;;40.92;;
37305;SDS011;23193;42.656;21.170;2024-01-15T05:29:59;85.65;;;41.65;;
37305;SDS011;23193;42.656;21.170;2024-01-15T05:32:26;87.88;;;42.83;;
37305;SDS011;23193;42.656;21.170;2024-01-15T05:34:53;87.10;;;40.53;;
37305;SDS011;23193;42.656;21.170;2024-01-15T05:37:20;86.72;;;43.10;;
37305;SDS011;23193;42.656;21.170;2024-01-15T05:39:47;83.57;;;42.83;;
37305;SDS011;23193;42.656;21.170;2024-01-15T05:42:14;87.30;;;43.88;;
37305;SDS011;23193;42.656;21.170;2024-01-15T05:44:42;82.43;;;42.58;;
37305;SDS011;23193;42.656;21.170;2024-01-15T05:47:09;97.50;;;45.70;;
37305;SDS011;23193;42.656;21.170;2024-01-15T05:49:36;100.18;;;47.75;;
37305;SDS011;23193;42.656;21.170;2024-01-15T05:52:03;102.13;;;49.03;;
37305;SDS011;23193;42.656;21.170;2024-01-15T05:54:31;100.47;;;48.17;;
37305;SDS011;23193;42.656;21.170;2024-01-15T05:56:58;103.90;;;49.28;;
37305;SDS011;23193;42.656;21.170;2024-01-15T05:59:25;96.47;;;46.47;;
37305;SDS011;23193;42.656;21.170;2024-01-15T06:01:52;78.70;;;38.95;;
37305;SDS011;23193;42.656;21.170;2024-01-15T06:04:20;78.47;;;39.95;;
37305;SDS011;23193;42.656;21.170;2024-01-15T06:06:47;81.07;;;39.42;;
37305;SDS011;23193;42.656;21.170;2024-01-15T06:09:15;79.03;;;40.80;;
37305;SDS011;23193;42.656;21.170;2024-01-15T06:11:42;83.50;;;39.50;;
37305;SDS011;23193;42.656;21.170;2024-01-15T06:14:09;86.10;;;40.90;;
37305;SDS011;23193;42.656;21.170;2024-01-15T06:16:36;94.93;;;41.67;;
37305;SDS011;23193;42.656;21.170;2024-01-15T06:19:03;93.22;;;44.80;;
37305;SDS011;23193;42.656;21.170;2024-01-15T06:21:30;107.85;;;52.10;;
37305;SDS011;23193;42.656;21.170;2024-01-15T06:23:57;98.43;;;48.72;;
37305;SDS011;23193;42.656;21.170;2024-01-15T06:26:24;96.13;;;48.50;;
37305;SDS011;23193;42.656;21.170;2024-01-15T06:28:51;114.70;;;55.30;;
37305;SDS011;23193;42.656;21.170;2024-01-15T06:31:18;94.28;;;44.75;;
37305;SDS011;23193;42.656;21.170;2024-01-15T06:33:45;97.32;;;44.60;;
37305;SDS011;23193;42.656;21.170;2024-01-15T06:36:15;97.53;;;49.65;;
37305;SDS011;23193;42.656;21.170;2024-01-15T06:38:45;109.53;;;55.80;;
37305;SDS011;23193;42.656;21.170;2024-01-15T06:41:12;337.65;;;161.10;;
37305;SDS011;23193;42.656;21.170;2024-01-15T06:43:39;302.85;;;141.43;;
37305;SDS011;23193;42.656;21.170;2024-01-15T06:46:06;304.38;;;143.73;;
37305;SDS011;23193;42.656;21.170;2024-01-15T06:48:34;135.55;;;70.53;;
37305;SDS011;23193;42.656;21.170;2024-01-15T06:51:02;111.75;;;58.03;;
37305;SDS011;23193;42.656;21.170;2024-01-15T06:53:29;100.65;;;49.25;;
37305;SDS011;23193;42.656;21.170;2024-01-15T06:55:56;89.50;;;43.03;;
37305;SDS011;23193;42.656;21.170;2024-01-15T06:58:23;92.28;;;45.67;;
37305;SDS011;23193;42.656;21.170;2024-01-15T07:00:50;96.07;;;46.90;;
37305;SDS011;23193;42.656;21.170;2024-01-15T07:03:18;92.68;;;44.30;;
37305;SDS011;23193;42.656;21.170;2024-01-15T07:05:45;95.60;;;46.38;;
37305;SDS011;23193;42.656;21.170;2024-01-15T07:08:12;99.25;;;47.95;;
37305;SDS011;23193;42.656;21.170;2024-01-15T07:10:39;94.35;;;46.15;;
37305;SDS011;23193;42.656;21.170;2024-01-15T07:13:06;88.75;;;45.33;;
37305;SDS011;23193;42.656;21.170;2024-01-15T07:15:33;101.43;;;48.33;;
37305;SDS011;23193;42.656;21.170;2024-01-15T07:18:00;349.05;;;132.85;;
37305;SDS011;23193;42.656;21.170;2024-01-15T07:20:27;115.40;;;49.90;;
37305;SDS011;23193;42.656;21.170;2024-01-15T07:22:55;101.28;;;48.03;;
37305;SDS011;23193;42.656;21.170;2024-01-15T07:25:22;95.60;;;45.63;;
37305;SDS011;23193;42.656;21.170;2024-01-15T07:27:49;99.38;;;45.90;;
37305;SDS011;23193;42.656;21.170;2024-01-15T07:30:16;93.03;;;45.47;;
37305;SDS011;23193;42.656;21.170;2024-01-15T07:32:43;114.85;;;51.97;;
37305;SDS011;23193;42.656;21.170;2024-01-15T07:35:10;92.10;;;43.60;;
37305;SDS011;23193;42.656;21.170;2024-01-15T07:37:37;96.75;;;44.20;;
37305;SDS011;23193;42.656;21.170;2024-01-15T07:40:05;99.00;;;45.60;;
37305;SDS011;23193;42.656;21.170;2024-01-15T07:42:35;87.93;;;45.17;;
37305;SDS011;23193;42.656;21.170;2024-01-15T07:45:02;159.98;;;78.82;;
37305;SDS011;23193;42.656;21.170;2024-01-15T07:47:29;83.45;;;40.50;;
37305;SDS011;23193;42.656;21.170;2024-01-15T07:49:56;90.60;;;40.72;;
37305;SDS011;23193;42.656;21.170;2024-01-15T07:52:27;84.40;;;40.33;;
37305;SDS011;23193;42.656;21.170;2024-01-15T07:54:54;93.03;;;43.67;;
37305;SDS011;23193;42.656;21.170;2024-01-15T07:57:21;87.70;;;42.75;;
37305;SDS011;23193;42.656;21.170;2024-01-15T07:59:49;82.35;;;38.30;;
37305;SDS011;23193;42.656;21.170;2024-01-15T08:02:16;73.18;;;34.40;;
37305;SDS011;23193;42.656;21.170;2024-01-15T08:04:44;90.22;;;38.42;;
37305;SDS011;23193;42.656;21.170;2024-01-15T08:07:12;83.47;;;36.72;;
37305;SDS011;23193;42.656;21.170;2024-01-15T08:09:40;89.32;;;38.63;;
37305;SDS011;23193;42.656;21.170;2024-01-15T08:12:08;98.30;;;43.25;;
37305;SDS011;23193;42.656;21.170;2024-01-15T08:14:36;102.70;;;44.40;;
37305;SDS011;23193;42.656;21.170;2024-01-15T08:17:05;87.72;;;38.53;;
37305;SDS011;23193;42.656;21.170;2024-01-15T08:19:32;87.00;;;39.20;;
37305;SDS011;23193;42.656;21.170;2024-01-15T08:21:59;86.03;;;39.47;;
37305;SDS011;23193;42.656;21.170;2024-01-15T08:24:26;67.75;;;34.20;;
37305;SDS011;23193;42.656;21.170;2024-01-15T08:26:53;73.60;;;36.53;;
37305;SDS011;23193;42.656;21.170;2024-01-15T08:29:21;76.25;;;34.85;;
37305;SDS011;23193;42.656;21.170;2024-01-15T08:31:48;74.88;;;34.40;;
37305;SDS011;23193;42.656;21.170;2024-01-15T08:34:16;86.45;;;38.78;;
37305;SDS011;23193;42.656;21.170;2024-01-15T08:36:43;73.85;;;36.08;;
37305;SDS011;23193;42.656;21.170;2024-01-15T08:39:10;98.93;;;46.33;;
37305;SDS011;23193;42.656;21.170;2024-01-15T08:41:38;99.82;;;44.88;;
37305;SDS011;23193;42.656;21.170;2024-01-15T08:44:04;92.57;;;41.78;;
37305;SDS011;23193;42.656;21.170;2024-01-15T08:46:32;103.07;;;48.10;;
37305;SDS011;23193;42.656;21.170;2024-01-15T08:48:59;94.32;;;44.58;;
37305;SDS011;23193;42.656;21.170;2024-01-15T08:51:26;75.22;;;37.85;;
37305;SDS011;23193;42.656;21.170;2024-01-15T08:53:53;94.90;;;40.40;;
37305;SDS011;23193;42.656;21.170;2024-01-15T08:56:20;86.18;;;39.40;;
37305;SDS011;23193;42.656;21.170;2024-01-15T08:58:47;105.32;;;47.75;;
37305;SDS011;23193;42.656;21.170;2024-01-15T09:01:15;211.55;;;87.57;;
37305;SDS011;23193;42.656;21.170;2024-01-15T09:03:42;177.65;;;72.18;;
37305;SDS011;23193;42.656;21.170;2024-01-15T09:06:10;110.88;;;48.08;;
37305;SDS011;23193;42.656;21.170;2024-01-15T09:08:37;129.35;;;61.03;;
37305;SDS011;23193;42.656;21.170;2024-01-15T09:11:04;108.50;;;49.88;;
37305;SDS011;23193;42.656;21.170;2024-01-15T09:13:31;145.77;;;68.05;;
37305;SDS011;23193;42.656;21.170;2024-01-15T09:15:59;129.70;;;56.17;;
37305;SDS011;23193;42.656;21.170;2024-01-15T09:18:27;124.97;;;59.35;;
37305;SDS011;23193;42.656;21.170;2024-01-15T09:20:54;119.03;;;55.33;;
37305;SDS011;23193;42.656;21.170;2024-01-15T09:23:21;94.50;;;46.40;;
37305;SDS011;23193;42.656;21.170;2024-01-15T09:25:49;96.13;;;45.97;;
37305;SDS011;23193;42.656;21.170;2024-01-15T09:28:16;94.97;;;46.60;;
37305;SDS011;23193;42.656;21.170;2024-01-15T09:30:43;84.82;;;39.13;;
37305;SDS011;23193;42.656;21.170;2024-01-15T09:33:12;110.32;;;44.60;;
37305;SDS011;23193;42.656;21.170;2024-01-15T09:35:39;113.30;;;54.67;;
37305;SDS011;23193;42.656;21.170;2024-01-15T09:38:06;126.68;;;50.65;;
37305;SDS011;23193;42.656;21.170;2024-01-15T09:40:33;111.20;;;49.67;;
37305;SDS011;23193;42.656;21.170;2024-01-15T09:43:01;109.32;;;47.85;;
37305;SDS011;23193;42.656;21.170;2024-01-15T09:45:29;155.88;;;64.20;;
37305;SDS011;23193;42.656;21.170;2024-01-15T09:47:58;135.45;;;56.88;;
37305;SDS011;23193;42.656;21.170;2024-01-15T09:50:26;130.57;;;57.47;;
37305;SDS011;23193;42.656;21.170;2024-01-15T09:52:53;129.32;;;52.50;;
37305;SDS011;23193;42.656;21.170;2024-01-15T09:55:21;149.18;;;65.55;;
37305;SDS011;23193;42.656;21.170;2024-01-15T09:57:48;126.68;;;53.17;;
37305;SDS011;23193;42.656;21.170;2024-01-15T10:00:17;114.97;;;46.08;;
37305;SDS011;23193;42.656;21.170;2024-01-15T10:02:44;122.50;;;53.90;;
37305;SDS011;23193;42.656;21.170;2024-01-15T10:05:11;126.15;;;55.33;;
37305;SDS011;23193;42.656;21.170;2024-01-15T10:07:39;127.15;;;56.53;;
37305;SDS011;23193;42.656;21.170;2024-01-15T10:10:07;98.63;;;46.70;;
37305;SDS011;23193;42.656;21.170;2024-01-15T10:12:34;85.45;;;41.55;;
37305;SDS011;23193;42.656;21.170;2024-01-15T10:15:01;110.03;;;49.92;;
37305;SDS011;23193;42.656;21.170;2024-01-15T10:17:29;106.03;;;46.20;;
37305;SDS011;23193;42.656;21.170;2024-01-15T10:19:58;108.35;;;48.40;;
37305;SDS011;23193;42.656;21.170;2024-01-15T10:22:25;101.70;;;45.58;;
37305;SDS011;23193;42.656;21.170;2024-01-15T10:24:53;98.57;;;43.35;;
37305;SDS011;23193;42.656;21.170;2024-01-15T10:27:20;87.90;;;44.45;;
37305;SDS011;23193;42.656;21.170;2024-01-15T10:29:47;103.65;;;46.70;;
37305;SDS011;23193;42.656;21.170;2024-01-15T10:32:14;109.53;;;53.30;;
37305;SDS011;23193;42.656;21.170;2024-01-15T10:34:41;117.32;;;56.38;;
37305;SDS011;23193;42.656;21.170;2024-01-15T10:37:10;117.68;;;56.80;;
37305;SDS011;23193;42.656;21.170;2024-01-15T10:39:37;120.55;;;53.78;;
37305;SDS011;23193;42.656;21.170;2024-01-15T10:42:06;111.85;;;53.08;;
37305;SDS011;23193;42.656;21.170;2024-01-15T10:44:34;112.22;;;47.97;;
37305;SDS011;23193;42.656;21.170;2024-01-15T10:47:01;97.30;;;45.45;;
37305;SDS011;23193;42.656;21.170;2024-01-15T10:49:28;98.50;;;45.95;;
37305;SDS011;23193;42.656;21.170;2024-01-15T10:52:02;98.53;;;46.25;;
37305;SDS011;23193;42.656;21.170;2024-01-15T10:54:30;102.75;;;46.95;;
37305;SDS011;23193;42.656;21.170;2024-01-15T10:56:58;87.43;;;42.47;;
37305;SDS011;23193;42.656;21.170;2024-01-15T10:59:25;74.88;;;37.42;;
37305;SDS011;23193;42.656;21.170;2024-01-15T11:01:52;84.90;;;37.08;;
37305;SDS011;23193;42.656;21.170;2024-01-15T11:04:23;73.78;;;36.40;;
37305;SDS011;23193;42.656;21.170;2024-01-15T11:06:55;91.97;;;41.92;;
37305;SDS011;23193;42.656;21.170;2024-01-15T11:09:23;81.75;;;39.90;;
37305;SDS011;23193;42.656;21.170;2024-01-15T11:11:52;68.32;;;31.13;;
37305;SDS011;23193;42.656;21.170;2024-01-15T11:17:02;76.70;;;34.45;;
37305;SDS011;23193;42.656;21.170;2024-01-15T11:19:36;59.85;;;29.95;;
37305;SDS011;23193;42.656;21.170;2024-01-15T11:22:04;65.00;;;28.10;;
37305;SDS011;23193;42.656;21.170;2024-01-15T11:24:42;70.82;;;34.78;;
37305;SDS011;23193;42.656;21.170;2024-01-15T11:27:09;75.28;;;34.83;;
37305;SDS011;23193;42.656;21.170;2024-01-15T11:29:36;86.05;;;38.42;;
37305;SDS011;23193;42.656;21.170;2024-01-15T11:32:10;33.65;;;16.88;;
37305;SDS011;23193;42.656;21.170;2024-01-15T11:37:20;27.98;;;13.63;;
37305;SDS011;23193;42.656;21.170;2024-01-15T11:39:47;38.85;;;18.50;;
37305;SDS011;23193;42.656;21.170;2024-01-15T11:42:14;27.08;;;13.27;;
37305;SDS011;23193;42.656;21.170;2024-01-15T11:44:42;26.58;;;12.70;;
37305;SDS011;23193;42.656;21.170;2024-01-15T11:47:10;18.48;;;9.68;;
37305;SDS011;23193;42.656;21.170;2024-01-15T11:50:01;20.17;;;9.85;;
37305;SDS011;23193;42.656;21.170;2024-01-15T11:52:39;27.42;;;12.25;;
37305;SDS011;23193;42.656;21.170;2024-01-15T11:57:52;26.98;;;11.85;;
37305;SDS011;23193;42.656;21.170;2024-01-15T12:00:22;35.85;;;13.65;;
37305;SDS011;23193;42.656;21.170;2024-01-15T12:02:50;39.83;;;20.23;;
37305;SDS011;23193;42.656;21.170;2024-01-15T12:05:21;34.17;;;14.80;;
37305;SDS011;23193;42.656;21.170;2024-01-15T12:07:48;32.08;;;14.10;;
37305;SDS011;23193;42.656;21.170;2024-01-15T12:10:17;35.33;;;14.65;;
37305;SDS011;23193;42.656;21.170;2024-01-15T12:15:15;35.00;;;16.05;;
37305;SDS011;23193;42.656;21.170;2024-01-15T12:17:43;24.98;;;12.40;;
37305;SDS011;23193;42.656;21.170;2024-01-15T12:20:10;21.52;;;10.77;;
37305;SDS011;23193;42.656;21.170;2024-01-15T12:22:38;24.17;;;12.10;;
37305;SDS011;23193;42.656;21.170;2024-01-15T12:25:23;23.45;;;11.70;;
37305;SDS011;23193;42.656;21.170;2024-01-15T12:27:50;24.88;;;12.35;;
37305;SDS011;23193;42.656;21.170;2024-01-15T12:30:18;21.17;;;9.88;;
37305;SDS011;23193;42.656;21.170;2024-01-15T12:32:45;17.38;;;9.10;;
37305;SDS011;23193;42.656;21.170;2024-01-15T12:35:14;27.98;;;10.07;;
37305;SDS011;23193;42.656;21.170;2024-01-15T12:37:42;28.55;;;11.35;;
37305;SDS011;23193;42.656;21.170;2024-01-15T12:40:10;31.23;;;10.45;;
37305;SDS011;23193;42.656;21.170;2024-01-15T12:42:37;20.02;;;10.40;;
37305;SDS011;23193;42.656;21.170;2024-01-15T12:45:08;23.85;;;11.50;;
37305;SDS011;23193;42.656;21.170;2024-01-15T12:47:36;20.05;;;9.05;;
37305;SDS011;23193;42.656;21.170;2024-01-15T12:50:07;25.45;;;8.57;;
37305;SDS011;23193;42.656;21.170;2024-01-15T12:52:45;20.85;;;8.20;;
37305;SDS011;23193;42.656;21.170;2024-01-15T12:55:13;35.08;;;10.43;;
37305;SDS011;23193;42.656;21.170;2024-01-15T12:57:40;23.60;;;9.23;;
37305;SDS011;23193;42.656;21.170;2024-01-15T13:00:08;22.83;;;8.23;;
37305;SDS011;23193;42.656;21.170;2024-01-15T13:02:41;29.20;;;10.75;;
37305;SDS011;23193;42.656;21.170;2024-01-15T13:05:09;33.17;;;11.48;;
37305;SDS011;23193;42.656;21.170;2024-01-15T13:07:41;46.15;;;15.98;;
37305;SDS011;23193;42.656;21.170;2024-01-15T13:10:10;59.05;;;28.08;;
37305;SDS011;23193;42.656;21.170;2024-01-15T13:12:37;23.73;;;10.88;;
37305;SDS011;23193;42.656;21.170;2024-01-15T13:15:05;25.98;;;11.20;;
37305;SDS011;23193;42.656;21.170;2024-01-15T13:17:32;26.95;;;11.35;;
37305;SDS011;23193;42.656;21.170;2024-01-15T13:20:00;19.30;;;9.02;;
37305;SDS011;23193;42.656;21.170;2024-01-15T13:22:27;19.83;;;9.50;;
37305;SDS011;23193;42.656;21.170;2024-01-15T13:24:59;30.48;;;12.85;;
37305;SDS011;23193;42.656;21.170;2024-01-15T13:27:27;32.22;;;14.07;;
37305;SDS011;23193;42.656;21.170;2024-01-15T13:29:55;35.58;;;16.90;;
37305;SDS011;23193;42.656;21.170;2024-01-15T13:32:24;29.80;;;13.57;;
37305;SDS011;23193;42.656;21.170;2024-01-15T13:34:52;29.45;;;13.55;;
37305;SDS011;23193;42.656;21.170;2024-01-15T13:37:19;39.42;;;20.00;;
37305;SDS011;23193;42.656;21.170;2024-01-15T13:39:47;55.58;;;23.40;;
37305;SDS011;23193;42.656;21.170;2024-01-15T13:42:17;42.85;;;17.83;;
37305;SDS011;23193;42.656;21.170;2024-01-15T13:44:44;39.92;;;17.42;;
37305;SDS011;23193;42.656;21.170;2024-01-15T13:47:11;41.53;;;13.80;;
37305;SDS011;23193;42.656;21.170;2024-01-15T13:49:39;40.50;;;15.20;;
37305;SDS011;23193;42.656;21.170;2024-01-15T13:52:06;34.35;;;16.23;;
37305;SDS011;23193;42.656;21.170;2024-01-15T13:54:34;35.40;;;15.45;;
37305;SDS011;23193;42.656;21.170;2024-01-15T13:57:15;35.75;;;15.38;;
37305;SDS011;23193;42.656;21.170;2024-01-15T13:59:42;36.88;;;15.27;;
37305;SDS011;23193;42.656;21.170;2024-01-15T14:02:10;35.40;;;16.95;;
37305;SDS011;23193;42.656;21.170;2024-01-15T14:04:37;50.45;;;18.48;;
37305;SDS011;23193;42.656;21.170;2024-01-15T14:07:04;40.35;;;19.42;;
37305;SDS011;23193;42.656;21.170;2024-01-15T14:09:32;52.42;;;20.50;;
37305;SDS011;23193;42.656;21.170;2024-01-15T14:11:59;61.60;;;23.25;;
37305;SDS011;23193;42.656;21.170;2024-01-15T14:14:26;69.00;;;23.58;;